All Spectrum Aviation - Van Nuys Airport - KVNY

HOME

Condor Squadron KVNY Webcam

Visit our Electronics Store

Condor Squadron Webcam - Van Nuys Airport - KVNY
Picture taken: Thu, 09 Jul 2020 01:30:43 -0700
YouTube Channel!    Latest Timelapse Movie    Full Size Image    Regular Size Image    

2020/07/09 07:51 KVNY 090751Z 12005KT 10SM CLR 21/15 A2988 RMK AO2 SLP109 T02060150 403220183

HOME

Condor Squadron KVNY Webcam

Visit our Electronics Store